LIEO/OLB METAR and TAF weather

Enter ICAO airport designator
Station Type Date Time Source
LIEO METAR 2019/08/25 06:20 UTC NOAA

LIEO 250620Z VRB01KT 9000 NSC 23/22 Q1016


Station Type Date Time Source
LIEO Decoded METAR 2019/08/25 06:20 UTC NOAA

Station name not available
Aug 25, 2019 - 02:20 AM EDT / 2019.08.25 0620 UTC
Wind: Variable at 1 MPH (1 KT):0
Visibility: 5 mile(s):0
Temperature: 73 F (23 C)
Dew Point: 71 F (22 C)
Relative Humidity: 94%
Pressure (altimeter): 30.00 in. Hg (1016 hPa)
ob: LIEO 250620Z VRB01KT 9000 NSC 23/22 Q1016
cycle: 6

Station Type Date Time Source
LIEO TAF 2019/08/25 06:21 UTC NOAA

TAF LIEO 250500Z 2506/2606 VRB05KT 9999 SCT025
BECMG 2508/2510 04010KT
TEMPO 2512/2516 TSRA
BECMG 2519/2521 VRB05KT

Example: see airport list